sensor_id;sensor_type;location;lat;lon;timestamp;pressure;altitude;pressure_sealevel;temperature
54746;BMP180;40640;48.130;11.356;2022-10-31T00:02:18;96132.00;;;13.30
54746;BMP180;40640;48.130;11.356;2022-10-31T00:06:21;96129.00;;;13.20
54746;BMP180;40640;48.130;11.356;2022-10-31T00:10:25;96132.00;;;13.20
54746;BMP180;40640;48.130;11.356;2022-10-31T00:14:28;96137.00;;;13.10
54746;BMP180;40640;48.130;11.356;2022-10-31T00:18:31;96131.00;;;13.30
54746;BMP180;40640;48.130;11.356;2022-10-31T00:22:34;96123.00;;;13.30
54746;BMP180;40640;48.130;11.356;2022-10-31T00:26:38;96125.00;;;13.10
54746;BMP180;40640;48.130;11.356;2022-10-31T00:30:40;96131.00;;;13.10
54746;BMP180;40640;48.130;11.356;2022-10-31T00:34:43;96129.00;;;12.90
54746;BMP180;40640;48.130;11.356;2022-10-31T00:38:47;96128.00;;;12.90
54746;BMP180;40640;48.130;11.356;2022-10-31T00:42:51;96118.00;;;13.00
54746;BMP180;40640;48.130;11.356;2022-10-31T00:46:54;96123.00;;;13.00
54746;BMP180;40640;48.130;11.356;2022-10-31T00:50:57;96126.00;;;13.00
54746;BMP180;40640;48.130;11.356;2022-10-31T00:54:59;96127.00;;;13.00
54746;BMP180;40640;48.130;11.356;2022-10-31T00:59:04;96119.00;;;12.80
54746;BMP180;40640;48.130;11.356;2022-10-31T01:03:06;96119.00;;;12.80
54746;BMP180;40640;48.130;11.356;2022-10-31T01:07:13;96113.00;;;12.80
54746;BMP180;40640;48.130;11.356;2022-10-31T01:11:20;96117.00;;;12.70
54746;BMP180;40640;48.130;11.356;2022-10-31T01:15:24;96110.00;;;12.60
54746;BMP180;40640;48.130;11.356;2022-10-31T01:19:27;96109.00;;;12.60
54746;BMP180;40640;48.130;11.356;2022-10-31T01:23:31;96119.00;;;12.70
54746;BMP180;40640;48.130;11.356;2022-10-31T01:27:34;96114.00;;;12.60
54746;BMP180;40640;48.130;11.356;2022-10-31T01:31:39;96111.00;;;12.70
54746;BMP180;40640;48.130;11.356;2022-10-31T01:35:42;96112.00;;;12.80
54746;BMP180;40640;48.130;11.356;2022-10-31T01:39:47;96107.00;;;12.80
54746;BMP180;40640;48.130;11.356;2022-10-31T01:43:53;96113.00;;;12.70
54746;BMP180;40640;48.130;11.356;2022-10-31T01:47:57;96107.00;;;12.80
54746;BMP180;40640;48.130;11.356;2022-10-31T01:52:03;96111.00;;;12.80
54746;BMP180;40640;48.130;11.356;2022-10-31T01:56:07;96107.00;;;12.80
54746;BMP180;40640;48.130;11.356;2022-10-31T02:00:13;96104.00;;;12.90
54746;BMP180;40640;48.130;11.356;2022-10-31T02:04:17;96111.00;;;12.80
54746;BMP180;40640;48.130;11.356;2022-10-31T02:08:25;96114.00;;;12.70
54746;BMP180;40640;48.130;11.356;2022-10-31T02:12:31;96108.00;;;12.70
54746;BMP180;40640;48.130;11.356;2022-10-31T02:16:34;96109.00;;;12.70
54746;BMP180;40640;48.130;11.356;2022-10-31T02:20:48;96101.00;;;12.60
54746;BMP180;40640;48.130;11.356;2022-10-31T02:25:09;96104.00;;;12.70
54746;BMP180;40640;48.130;11.356;2022-10-31T02:29:35;96096.00;;;12.60
54746;BMP180;40640;48.130;11.356;2022-10-31T02:33:44;96095.00;;;12.70
54746;BMP180;40640;48.130;11.356;2022-10-31T02:37:55;96096.00;;;12.70
54746;BMP180;40640;48.130;11.356;2022-10-31T02:42:03;96101.00;;;12.50
54746;BMP180;40640;48.130;11.356;2022-10-31T02:46:13;96092.00;;;12.50
54746;BMP180;40640;48.130;11.356;2022-10-31T02:50:23;96096.00;;;12.40
54746;BMP180;40640;48.130;11.356;2022-10-31T02:54:28;96092.00;;;12.40
54746;BMP180;40640;48.130;11.356;2022-10-31T02:58:33;96099.00;;;12.40
54746;BMP180;40640;48.130;11.356;2022-10-31T03:02:56;96104.00;;;12.40
54746;BMP180;40640;48.130;11.356;2022-10-31T03:07:08;96100.00;;;12.40
54746;BMP180;40640;48.130;11.356;2022-10-31T03:11:13;96098.00;;;12.40
54746;BMP180;40640;48.130;11.356;2022-10-31T03:15:19;96094.00;;;12.50
54746;BMP180;40640;48.130;11.356;2022-10-31T03:19:26;96093.00;;;12.50
54746;BMP180;40640;48.130;11.356;2022-10-31T03:23:34;96101.00;;;12.40
54746;BMP180;40640;48.130;11.356;2022-10-31T03:27:40;96100.00;;;12.40
54746;BMP180;40640;48.130;11.356;2022-10-31T03:31:49;96107.00;;;12.40
54746;BMP180;40640;48.130;11.356;2022-10-31T03:35:54;96091.00;;;12.30
54746;BMP180;40640;48.130;11.356;2022-10-31T03:40:00;96101.00;;;12.30
54746;BMP180;40640;48.130;11.356;2022-10-31T03:44:08;96104.00;;;12.30
54746;BMP180;40640;48.130;11.356;2022-10-31T03:48:16;96103.00;;;12.20
54746;BMP180;40640;48.130;11.356;2022-10-31T03:52:25;96103.00;;;12.20
54746;BMP180;40640;48.130;11.356;2022-10-31T03:56:34;96108.00;;;12.00
54746;BMP180;40640;48.130;11.356;2022-10-31T04:00:39;96100.00;;;11.90
54746;BMP180;40640;48.130;11.356;2022-10-31T04:04:44;96092.00;;;11.80
54746;BMP180;40640;48.130;11.356;2022-10-31T04:08:51;96097.00;;;11.80
54746;BMP180;40640;48.130;11.356;2022-10-31T04:12:58;96098.00;;;11.70
54746;BMP180;40640;48.130;11.356;2022-10-31T04:17:12;96095.00;;;11.50
54746;BMP180;40640;48.130;11.356;2022-10-31T04:21:17;96100.00;;;11.50
54746;BMP180;40640;48.130;11.356;2022-10-31T04:25:20;96097.00;;;11.30
54746;BMP180;40640;48.130;11.356;2022-10-31T04:29:24;96101.00;;;11.40
54746;BMP180;40640;48.130;11.356;2022-10-31T04:33:27;96096.00;;;11.20
54746;BMP180;40640;48.130;11.356;2022-10-31T04:37:30;96094.00;;;11.20
54746;BMP180;40640;48.130;11.356;2022-10-31T04:41:33;96096.00;;;11.10
54746;BMP180;40640;48.130;11.356;2022-10-31T04:45:40;96095.00;;;11.10
54746;BMP180;40640;48.130;11.356;2022-10-31T04:49:43;96093.00;;;11.10
54746;BMP180;40640;48.130;11.356;2022-10-31T04:53:47;96093.00;;;11.10
54746;BMP180;40640;48.130;11.356;2022-10-31T04:58:13;96085.00;;;11.10
54746;BMP180;40640;48.130;11.356;2022-10-31T05:02:20;96086.00;;;11.10
54746;BMP180;40640;48.130;11.356;2022-10-31T05:06:29;96088.00;;;11.10
54746;BMP180;40640;48.130;11.356;2022-10-31T05:10:32;96083.00;;;11.10
54746;BMP180;40640;48.130;11.356;2022-10-31T05:14:35;96088.00;;;11.00
54746;BMP180;40640;48.130;11.356;2022-10-31T05:18:58;96084.00;;;11.00
54746;BMP180;40640;48.130;11.356;2022-10-31T05:23:01;96081.00;;;11.00
54746;BMP180;40640;48.130;11.356;2022-10-31T05:27:04;96084.00;;;10.90
54746;BMP180;40640;48.130;11.356;2022-10-31T05:31:07;96078.00;;;10.90
54746;BMP180;40640;48.130;11.356;2022-10-31T05:35:14;96071.00;;;10.90
54746;BMP180;40640;48.130;11.356;2022-10-31T05:39:37;96069.00;;;10.80
54746;BMP180;40640;48.130;11.356;2022-10-31T05:43:46;96078.00;;;10.90
54746;BMP180;40640;48.130;11.356;2022-10-31T05:47:52;96074.00;;;10.80
54746;BMP180;40640;48.130;11.356;2022-10-31T05:52:28;96077.00;;;10.80
54746;BMP180;40640;48.130;11.356;2022-10-31T05:56:41;96068.00;;;10.90
54746;BMP180;40640;48.130;11.356;2022-10-31T06:00:44;96068.00;;;10.90
54746;BMP180;40640;48.130;11.356;2022-10-31T06:04:47;96069.00;;;11.00
54746;BMP180;40640;48.130;11.356;2022-10-31T06:08:52;96072.00;;;10.90
54746;BMP180;40640;48.130;11.356;2022-10-31T06:12:56;96072.00;;;10.90
54746;BMP180;40640;48.130;11.356;2022-10-31T06:17:10;96065.00;;;10.90
54746;BMP180;40640;48.130;11.356;2022-10-31T06:21:22;96075.00;;;10.90
54746;BMP180;40640;48.130;11.356;2022-10-31T06:25:27;96074.00;;;10.90
54746;BMP180;40640;48.130;11.356;2022-10-31T06:29:30;96076.00;;;10.90
54746;BMP180;40640;48.130;11.356;2022-10-31T06:33:41;96068.00;;;10.90
54746;BMP180;40640;48.130;11.356;2022-10-31T06:37:51;96078.00;;;11.00
54746;BMP180;40640;48.130;11.356;2022-10-31T06:42:11;96071.00;;;11.10
54746;BMP180;40640;48.130;11.356;2022-10-31T06:46:14;96070.00;;;11.10
54746;BMP180;40640;48.130;11.356;2022-10-31T06:50:24;96074.00;;;11.20
54746;BMP180;40640;48.130;11.356;2022-10-31T06:54:27;96077.00;;;11.20
54746;BMP180;40640;48.130;11.356;2022-10-31T06:58:32;96070.00;;;11.20
54746;BMP180;40640;48.130;11.356;2022-10-31T07:02:37;96079.00;;;11.20
54746;BMP180;40640;48.130;11.356;2022-10-31T07:06:40;96085.00;;;11.10
54746;BMP180;40640;48.130;11.356;2022-10-31T07:10:43;96081.00;;;11.00
54746;BMP180;40640;48.130;11.356;2022-10-31T07:14:55;96085.00;;;11.10
54746;BMP180;40640;48.130;11.356;2022-10-31T07:18:58;96079.00;;;11.20
54746;BMP180;40640;48.130;11.356;2022-10-31T07:23:03;96083.00;;;11.30
54746;BMP180;40640;48.130;11.356;2022-10-31T07:27:07;96092.00;;;11.40
54746;BMP180;40640;48.130;11.356;2022-10-31T07:31:11;96089.00;;;11.40
54746;BMP180;40640;48.130;11.356;2022-10-31T07:35:15;96080.00;;;11.50
54746;BMP180;40640;48.130;11.356;2022-10-31T07:39:21;96095.00;;;11.60
54746;BMP180;40640;48.130;11.356;2022-10-31T07:43:24;96096.00;;;11.70
54746;BMP180;40640;48.130;11.356;2022-10-31T07:47:54;96096.00;;;11.80
54746;BMP180;40640;48.130;11.356;2022-10-31T07:52:20;96082.00;;;11.90
54746;BMP180;40640;48.130;11.356;2022-10-31T07:56:41;96074.00;;;12.00
54746;BMP180;40640;48.130;11.356;2022-10-31T08:00:45;96079.00;;;12.20
54746;BMP180;40640;48.130;11.356;2022-10-31T08:04:54;96081.00;;;12.30
54746;BMP180;40640;48.130;11.356;2022-10-31T08:09:01;96070.00;;;12.40
54746;BMP180;40640;48.130;11.356;2022-10-31T08:13:07;96070.00;;;12.50
54746;BMP180;40640;48.130;11.356;2022-10-31T08:17:14;96059.00;;;12.70
54746;BMP180;40640;48.130;11.356;2022-10-31T08:21:27;96065.00;;;12.90
54746;BMP180;40640;48.130;11.356;2022-10-31T08:25:32;96067.00;;;13.00
54746;BMP180;40640;48.130;11.356;2022-10-31T08:29:39;96058.00;;;13.20
54746;BMP180;40640;48.130;11.356;2022-10-31T08:33:42;96061.00;;;13.30
54746;BMP180;40640;48.130;11.356;2022-10-31T08:37:53;96053.00;;;13.50
54746;BMP180;40640;48.130;11.356;2022-10-31T08:41:59;96052.00;;;13.70
54746;BMP180;40640;48.130;11.356;2022-10-31T08:46:03;96044.00;;;13.90
54746;BMP180;40640;48.130;11.356;2022-10-31T08:50:06;96039.00;;;14.10
54746;BMP180;40640;48.130;11.356;2022-10-31T08:54:10;96037.00;;;14.20
54746;BMP180;40640;48.130;11.356;2022-10-31T08:58:28;96027.00;;;14.50
54746;BMP180;40640;48.130;11.356;2022-10-31T09:02:35;96029.00;;;14.60
54746;BMP180;40640;48.130;11.356;2022-10-31T09:06:39;96029.00;;;14.80
54746;BMP180;40640;48.130;11.356;2022-10-31T09:10:58;96037.00;;;15.00
54746;BMP180;40640;48.130;11.356;2022-10-31T09:15:38;96023.00;;;15.20
54746;BMP180;40640;48.130;11.356;2022-10-31T09:20:07;96021.00;;;15.50
54746;BMP180;40640;48.130;11.356;2022-10-31T09:24:11;96021.00;;;15.70
54746;BMP180;40640;48.130;11.356;2022-10-31T09:28:18;96021.00;;;15.90
54746;BMP180;40640;48.130;11.356;2022-10-31T09:32:21;96016.00;;;16.30
54746;BMP180;40640;48.130;11.356;2022-10-31T09:36:24;96010.00;;;17.50
54746;BMP180;40640;48.130;11.356;2022-10-31T09:40:33;96018.00;;;19.00
54746;BMP180;40640;48.130;11.356;2022-10-31T09:44:48;96011.00;;;20.10
54746;BMP180;40640;48.130;11.356;2022-10-31T09:49:25;96004.00;;;21.10
54746;BMP180;40640;48.130;11.356;2022-10-31T09:53:35;96017.00;;;22.60
54746;BMP180;40640;48.130;11.356;2022-10-31T09:57:41;96019.00;;;24.10
54746;BMP180;40640;48.130;11.356;2022-10-31T10:01:49;96014.00;;;25.20
54746;BMP180;40640;48.130;11.356;2022-10-31T10:05:58;96009.00;;;25.40
54746;BMP180;40640;48.130;11.356;2022-10-31T10:10:33;96004.00;;;24.90
54746;BMP180;40640;48.130;11.356;2022-10-31T10:15:13;96007.00;;;25.10
54746;BMP180;40640;48.130;11.356;2022-10-31T10:19:30;95998.00;;;25.30
54746;BMP180;40640;48.130;11.356;2022-10-31T10:23:47;96002.00;;;25.60
54746;BMP180;40640;48.130;11.356;2022-10-31T10:28:02;96002.00;;;25.90
54746;BMP180;40640;48.130;11.356;2022-10-31T10:32:25;96000.00;;;25.90
54746;BMP180;40640;48.130;11.356;2022-10-31T10:36:35;95990.00;;;25.80
54746;BMP180;40640;48.130;11.356;2022-10-31T10:40:40;95984.00;;;25.70
54746;BMP180;40640;48.130;11.356;2022-10-31T10:44:45;95985.00;;;25.60
54746;BMP180;40640;48.130;11.356;2022-10-31T10:49:21;95983.00;;;25.20
54746;BMP180;40640;48.130;11.356;2022-10-31T10:53:41;95978.00;;;24.40
54746;BMP180;40640;48.130;11.356;2022-10-31T10:58:02;95967.00;;;23.80
54746;BMP180;40640;48.130;11.356;2022-10-31T11:02:16;95966.00;;;23.50
54746;BMP180;40640;48.130;11.356;2022-10-31T11:06:21;95964.00;;;23.40
54746;BMP180;40640;48.130;11.356;2022-10-31T11:10:28;95963.00;;;23.50
54746;BMP180;40640;48.130;11.356;2022-10-31T11:14:33;95955.00;;;23.70
54746;BMP180;40640;48.130;11.356;2022-10-31T11:18:40;95946.00;;;23.60
54746;BMP180;40640;48.130;11.356;2022-10-31T11:22:44;95939.00;;;23.60
54746;BMP180;40640;48.130;11.356;2022-10-31T11:26:49;95940.00;;;23.60
54746;BMP180;40640;48.130;11.356;2022-10-31T11:30:54;95941.00;;;23.60
54746;BMP180;40640;48.130;11.356;2022-10-31T11:35:00;95930.00;;;23.70
54746;BMP180;40640;48.130;11.356;2022-10-31T11:39:05;95929.00;;;24.10
54746;BMP180;40640;48.130;11.356;2022-10-31T11:43:18;95916.00;;;24.50
54746;BMP180;40640;48.130;11.356;2022-10-31T11:47:25;95915.00;;;25.30
54746;BMP180;40640;48.130;11.356;2022-10-31T11:51:33;95923.00;;;26.50
54746;BMP180;40640;48.130;11.356;2022-10-31T11:55:38;95920.00;;;26.90
54746;BMP180;40640;48.130;11.356;2022-10-31T11:59:51;95914.00;;;26.00
54746;BMP180;40640;48.130;11.356;2022-10-31T12:04:00;95914.00;;;25.10
54746;BMP180;40640;48.130;11.356;2022-10-31T12:08:06;95903.00;;;24.00
54746;BMP180;40640;48.130;11.356;2022-10-31T12:12:21;95901.00;;;23.20
54746;BMP180;40640;48.130;11.356;2022-10-31T12:16:31;95907.00;;;22.60
54746;BMP180;40640;48.130;11.356;2022-10-31T12:20:44;95912.00;;;22.20
54746;BMP180;40640;48.130;11.356;2022-10-31T12:25:14;95918.00;;;21.90
54746;BMP180;40640;48.130;11.356;2022-10-31T12:29:36;95901.00;;;22.00
54746;BMP180;40640;48.130;11.356;2022-10-31T12:33:51;95897.00;;;22.40
54746;BMP180;40640;48.130;11.356;2022-10-31T12:38:20;95883.00;;;22.60
54746;BMP180;40640;48.130;11.356;2022-10-31T12:42:39;95881.00;;;22.80
54746;BMP180;40640;48.130;11.356;2022-10-31T12:47:00;95877.00;;;23.40
54746;BMP180;40640;48.130;11.356;2022-10-31T12:51:14;95863.00;;;24.10
54746;BMP180;40640;48.130;11.356;2022-10-31T12:55:34;95864.00;;;24.90
54746;BMP180;40640;48.130;11.356;2022-10-31T12:59:41;95862.00;;;25.20
54746;BMP180;40640;48.130;11.356;2022-10-31T13:03:52;95853.00;;;25.50
54746;BMP180;40640;48.130;11.356;2022-10-31T13:08:04;95851.00;;;25.70
54746;BMP180;40640;48.130;11.356;2022-10-31T13:12:10;95847.00;;;25.80
54746;BMP180;40640;48.130;11.356;2022-10-31T13:16:16;95840.00;;;26.00
54746;BMP180;40640;48.130;11.356;2022-10-31T13:20:23;95843.00;;;25.80
54746;BMP180;40640;48.130;11.356;2022-10-31T13:24:34;95838.00;;;25.00
54746;BMP180;40640;48.130;11.356;2022-10-31T13:28:43;95840.00;;;24.30
54746;BMP180;40640;48.130;11.356;2022-10-31T13:32:51;95837.00;;;23.50
54746;BMP180;40640;48.130;11.356;2022-10-31T13:37:03;95843.00;;;23.00
54746;BMP180;40640;48.130;11.356;2022-10-31T13:41:12;95831.00;;;22.60
54746;BMP180;40640;48.130;11.356;2022-10-31T13:45:21;95829.00;;;22.20
54746;BMP180;40640;48.130;11.356;2022-10-31T13:49:36;95821.00;;;21.80
54746;BMP180;40640;48.130;11.356;2022-10-31T13:53:57;95829.00;;;21.60
54746;BMP180;40640;48.130;11.356;2022-10-31T13:58:03;95818.00;;;21.50
54746;BMP180;40640;48.130;11.356;2022-10-31T14:02:12;95814.00;;;21.60
54746;BMP180;40640;48.130;11.356;2022-10-31T14:06:16;95813.00;;;21.80
54746;BMP180;40640;48.130;11.356;2022-10-31T14:10:25;95802.00;;;21.70
54746;BMP180;40640;48.130;11.356;2022-10-31T14:14:35;95800.00;;;21.50
54746;BMP180;40640;48.130;11.356;2022-10-31T14:18:41;95786.00;;;21.30
54746;BMP180;40640;48.130;11.356;2022-10-31T14:22:45;95791.00;;;21.10
54746;BMP180;40640;48.130;11.356;2022-10-31T14:26:53;95797.00;;;21.10
54746;BMP180;40640;48.130;11.356;2022-10-31T14:30:59;95798.00;;;21.10
54746;BMP180;40640;48.130;11.356;2022-10-31T14:35:03;95792.00;;;20.90
54746;BMP180;40640;48.130;11.356;2022-10-31T14:39:11;95791.00;;;20.80
54746;BMP180;40640;48.130;11.356;2022-10-31T14:43:32;95774.00;;;20.90
54746;BMP180;40640;48.130;11.356;2022-10-31T14:47:46;95773.00;;;20.90
54746;BMP180;40640;48.130;11.356;2022-10-31T14:51:54;95770.00;;;20.70
54746;BMP180;40640;48.130;11.356;2022-10-31T14:55:58;95773.00;;;20.60
54746;BMP180;40640;48.130;11.356;2022-10-31T15:00:12;95767.00;;;20.40
54746;BMP180;40640;48.130;11.356;2022-10-31T15:04:21;95760.00;;;20.20
54746;BMP180;40640;48.130;11.356;2022-10-31T15:08:33;95751.00;;;20.20
54746;BMP180;40640;48.130;11.356;2022-10-31T15:12:36;95754.00;;;20.20
54746;BMP180;40640;48.130;11.356;2022-10-31T15:16:41;95748.00;;;20.10
54746;BMP180;40640;48.130;11.356;2022-10-31T15:20:47;95753.00;;;20.10
54746;BMP180;40640;48.130;11.356;2022-10-31T15:24:50;95748.00;;;20.00
54746;BMP180;40640;48.130;11.356;2022-10-31T15:28:58;95751.00;;;19.90
54746;BMP180;40640;48.130;11.356;2022-10-31T15:33:18;95757.00;;;19.80
54746;BMP180;40640;48.130;11.356;2022-10-31T15:37:24;95758.00;;;19.70
54746;BMP180;40640;48.130;11.356;2022-10-31T15:41:30;95752.00;;;19.60
54746;BMP180;40640;48.130;11.356;2022-10-31T15:45:35;95752.00;;;19.50
54746;BMP180;40640;48.130;11.356;2022-10-31T15:49:40;95741.00;;;19.40
54746;BMP180;40640;48.130;11.356;2022-10-31T15:53:47;95734.00;;;19.20
54746;BMP180;40640;48.130;11.356;2022-10-31T15:57:52;95741.00;;;19.10
54746;BMP180;40640;48.130;11.356;2022-10-31T16:02:00;95739.00;;;19.00
54746;BMP180;40640;48.130;11.356;2022-10-31T16:06:05;95744.00;;;18.80
54746;BMP180;40640;48.130;11.356;2022-10-31T16:10:24;95757.00;;;18.70
54746;BMP180;40640;48.130;11.356;2022-10-31T16:14:29;95751.00;;;18.60
54746;BMP180;40640;48.130;11.356;2022-10-31T16:18:36;95747.00;;;18.40
54746;BMP180;40640;48.130;11.356;2022-10-31T16:22:49;95760.00;;;18.30
54746;BMP180;40640;48.130;11.356;2022-10-31T16:26:57;95757.00;;;18.20
54746;BMP180;40640;48.130;11.356;2022-10-31T16:31:12;95758.00;;;18.10
54746;BMP180;40640;48.130;11.356;2022-10-31T16:35:25;95752.00;;;18.00
54746;BMP180;40640;48.130;11.356;2022-10-31T16:39:28;95746.00;;;17.80
54746;BMP180;40640;48.130;11.356;2022-10-31T16:43:32;95755.00;;;17.70
54746;BMP180;40640;48.130;11.356;2022-10-31T16:47:34;95742.00;;;17.60
54746;BMP180;40640;48.130;11.356;2022-10-31T16:51:37;95754.00;;;17.50
54746;BMP180;40640;48.130;11.356;2022-10-31T16:55:43;95748.00;;;17.40
54746;BMP180;40640;48.130;11.356;2022-10-31T16:59:51;95752.00;;;17.40
54746;BMP180;40640;48.130;11.356;2022-10-31T17:03:55;95744.00;;;17.20
54746;BMP180;40640;48.130;11.356;2022-10-31T17:07:58;95751.00;;;17.20
54746;BMP180;40640;48.130;11.356;2022-10-31T17:12:01;95760.00;;;17.00
54746;BMP180;40640;48.130;11.356;2022-10-31T17:16:06;95759.00;;;17.00
54746;BMP180;40640;48.130;11.356;2022-10-31T17:20:19;95750.00;;;16.90
54746;BMP180;40640;48.130;11.356;2022-10-31T17:24:22;95746.00;;;16.80
54746;BMP180;40640;48.130;11.356;2022-10-31T17:28:25;95754.00;;;16.70
54746;BMP180;40640;48.130;11.356;2022-10-31T17:32:29;95750.00;;;16.60
54746;BMP180;40640;48.130;11.356;2022-10-31T17:36:33;95754.00;;;16.60
54746;BMP180;40640;48.130;11.356;2022-10-31T17:40:37;95746.00;;;16.50
54746;BMP180;40640;48.130;11.356;2022-10-31T17:44:40;95735.00;;;16.40
54746;BMP180;40640;48.130;11.356;2022-10-31T17:48:44;95737.00;;;16.30
54746;BMP180;40640;48.130;11.356;2022-10-31T17:52:47;95743.00;;;16.20
54746;BMP180;40640;48.130;11.356;2022-10-31T17:56:52;95740.00;;;16.00
54746;BMP180;40640;48.130;11.356;2022-10-31T18:00:55;95744.00;;;15.90
54746;BMP180;40640;48.130;11.356;2022-10-31T18:04:59;95744.00;;;15.80
54746;BMP180;40640;48.130;11.356;2022-10-31T18:09:04;95750.00;;;15.70
54746;BMP180;40640;48.130;11.356;2022-10-31T18:13:07;95746.00;;;15.70
54746;BMP180;40640;48.130;11.356;2022-10-31T18:17:10;95737.00;;;15.60
54746;BMP180;40640;48.130;11.356;2022-10-31T18:21:14;95734.00;;;15.50
54746;BMP180;40640;48.130;11.356;2022-10-31T18:25:17;95731.00;;;15.50
54746;BMP180;40640;48.130;11.356;2022-10-31T18:29:19;95739.00;;;15.50
54746;BMP180;40640;48.130;11.356;2022-10-31T18:33:22;95723.00;;;15.30
54746;BMP180;40640;48.130;11.356;2022-10-31T18:37:26;95727.00;;;15.30
54746;BMP180;40640;48.130;11.356;2022-10-31T18:41:29;95730.00;;;15.20
54746;BMP180;40640;48.130;11.356;2022-10-31T18:45:32;95729.00;;;15.10
54746;BMP180;40640;48.130;11.356;2022-10-31T18:49:48;95727.00;;;15.10
54746;BMP180;40640;48.130;11.356;2022-10-31T18:53:53;95721.00;;;15.00
54746;BMP180;40640;48.130;11.356;2022-10-31T18:57:56;95732.00;;;14.90
54746;BMP180;40640;48.130;11.356;2022-10-31T19:01:59;95723.00;;;14.80
54746;BMP180;40640;48.130;11.356;2022-10-31T19:06:02;95718.00;;;14.70
54746;BMP180;40640;48.130;11.356;2022-10-31T19:10:07;95717.00;;;14.50
54746;BMP180;40640;48.130;11.356;2022-10-31T19:14:11;95718.00;;;14.50
54746;BMP180;40640;48.130;11.356;2022-10-31T19:18:15;95722.00;;;14.50
54746;BMP180;40640;48.130;11.356;2022-10-31T19:22:18;95717.00;;;14.40
54746;BMP180;40640;48.130;11.356;2022-10-31T19:26:22;95704.00;;;14.40
54746;BMP180;40640;48.130;11.356;2022-10-31T19:30:25;95707.00;;;14.20
54746;BMP180;40640;48.130;11.356;2022-10-31T19:34:27;95708.00;;;14.20
54746;BMP180;40640;48.130;11.356;2022-10-31T19:38:30;95717.00;;;14.10
54746;BMP180;40640;48.130;11.356;2022-10-31T19:42:35;95707.00;;;14.00
54746;BMP180;40640;48.130;11.356;2022-10-31T19:46:38;95719.00;;;13.90
54746;BMP180;40640;48.130;11.356;2022-10-31T19:51:01;95709.00;;;13.90
54746;BMP180;40640;48.130;11.356;2022-10-31T19:55:05;95703.00;;;13.90
54746;BMP180;40640;48.130;11.356;2022-10-31T19:59:09;95704.00;;;13.80
54746;BMP180;40640;48.130;11.356;2022-10-31T20:03:13;95707.00;;;13.70
54746;BMP180;40640;48.130;11.356;2022-10-31T20:07:24;95697.00;;;13.70
54746;BMP180;40640;48.130;11.356;2022-10-31T20:11:27;95697.00;;;13.70
54746;BMP180;40640;48.130;11.356;2022-10-31T20:15:32;95691.00;;;13.60
54746;BMP180;40640;48.130;11.356;2022-10-31T20:19:36;95698.00;;;13.60
54746;BMP180;40640;48.130;11.356;2022-10-31T20:23:40;95704.00;;;13.50
54746;BMP180;40640;48.130;11.356;2022-10-31T20:27:42;95704.00;;;13.40
54746;BMP180;40640;48.130;11.356;2022-10-31T20:31:47;95705.00;;;13.50
54746;BMP180;40640;48.130;11.356;2022-10-31T20:35:50;95701.00;;;13.30
54746;BMP180;40640;48.130;11.356;2022-10-31T20:39:52;95704.00;;;13.40
54746;BMP180;40640;48.130;11.356;2022-10-31T20:43:57;95698.00;;;13.30
54746;BMP180;40640;48.130;11.356;2022-10-31T20:48:01;95703.00;;;13.30
54746;BMP180;40640;48.130;11.356;2022-10-31T20:52:04;95698.00;;;13.30
54746;BMP180;40640;48.130;11.356;2022-10-31T20:56:09;95706.00;;;13.30
54746;BMP180;40640;48.130;11.356;2022-10-31T21:00:12;95698.00;;;13.30
54746;BMP180;40640;48.130;11.356;2022-10-31T21:04:17;95701.00;;;13.10
54746;BMP180;40640;48.130;11.356;2022-10-31T21:08:19;95703.00;;;13.00
54746;BMP180;40640;48.130;11.356;2022-10-31T21:12:22;95703.00;;;13.10
54746;BMP180;40640;48.130;11.356;2022-10-31T21:16:28;95708.00;;;12.90
54746;BMP180;40640;48.130;11.356;2022-10-31T21:20:32;95700.00;;;12.90
54746;BMP180;40640;48.130;11.356;2022-10-31T21:24:35;95703.00;;;12.80
54746;BMP180;40640;48.130;11.356;2022-10-31T21:28:38;95706.00;;;12.70
54746;BMP180;40640;48.130;11.356;2022-10-31T21:32:41;95703.00;;;12.70
54746;BMP180;40640;48.130;11.356;2022-10-31T21:36:45;95705.00;;;12.70
54746;BMP180;40640;48.130;11.356;2022-10-31T21:40:48;95697.00;;;12.70
54746;BMP180;40640;48.130;11.356;2022-10-31T21:44:51;95697.00;;;12.60
54746;BMP180;40640;48.130;11.356;2022-10-31T21:48:54;95697.00;;;12.50
54746;BMP180;40640;48.130;11.356;2022-10-31T21:52:58;95691.00;;;12.60
54746;BMP180;40640;48.130;11.356;2022-10-31T21:57:22;95685.00;;;12.40
54746;BMP180;40640;48.130;11.356;2022-10-31T22:01:25;95686.00;;;12.40
54746;BMP180;40640;48.130;11.356;2022-10-31T22:05:28;95684.00;;;12.30
54746;BMP180;40640;48.130;11.356;2022-10-31T22:09:33;95689.00;;;12.30
54746;BMP180;40640;48.130;11.356;2022-10-31T22:13:36;95688.00;;;12.30
54746;BMP180;40640;48.130;11.356;2022-10-31T22:17:39;95679.00;;;12.30
54746;BMP180;40640;48.130;11.356;2022-10-31T22:21:43;95673.00;;;12.30
54746;BMP180;40640;48.130;11.356;2022-10-31T22:25:48;95667.00;;;12.30
54746;BMP180;40640;48.130;11.356;2022-10-31T22:29:51;95668.00;;;12.30
54746;BMP180;40640;48.130;11.356;2022-10-31T22:33:57;95666.00;;;12.20
54746;BMP180;40640;48.130;11.356;2022-10-31T22:38:00;95660.00;;;12.20
54746;BMP180;40640;48.130;11.356;2022-10-31T22:42:04;95663.00;;;12.20
54746;BMP180;40640;48.130;11.356;2022-10-31T22:46:10;95661.00;;;12.10
54746;BMP180;40640;48.130;11.356;2022-10-31T22:50:13;95652.00;;;12.00
54746;BMP180;40640;48.130;11.356;2022-10-31T22:54:17;95657.00;;;12.00
54746;BMP180;40640;48.130;11.356;2022-10-31T22:58:22;95657.00;;;12.00
54746;BMP180;40640;48.130;11.356;2022-10-31T23:02:26;95659.00;;;11.90
54746;BMP180;40640;48.130;11.356;2022-10-31T23:06:30;95662.00;;;11.90
54746;BMP180;40640;48.130;11.356;2022-10-31T23:10:34;95667.00;;;11.90
54746;BMP180;40640;48.130;11.356;2022-10-31T23:14:43;95663.00;;;11.70
54746;BMP180;40640;48.130;11.356;2022-10-31T23:18:45;95666.00;;;11.80
54746;BMP180;40640;48.130;11.356;2022-10-31T23:22:51;95657.00;;;11.80
54746;BMP180;40640;48.130;11.356;2022-10-31T23:26:55;95660.00;;;11.80